createdAt,value
2022-12-31T00:10:09.533Z,2.40
2022-12-31T00:25:11.652Z,2.50
2022-12-31T00:40:14.643Z,2.60
2022-12-31T00:55:16.868Z,2.50
2022-12-31T01:10:38.939Z,2.42
2022-12-31T01:25:43.861Z,2.38
2022-12-31T01:40:45.971Z,2.40
2022-12-31T01:55:54.344Z,2.40
2022-12-31T05:48:17.386Z,2.40
2022-12-31T06:03:19.615Z,2.30
2022-12-31T06:18:21.789Z,2.50
2022-12-31T06:33:23.928Z,2.30
2022-12-31T06:48:26.073Z,2.30
2022-12-31T07:04:15.552Z,2.30
2022-12-31T07:19:57.310Z,2.30
2022-12-31T07:35:21.275Z,2.50
2022-12-31T07:50:23.744Z,3.13
2022-12-31T08:05:41.384Z,2.60
2022-12-31T08:21:10.822Z,2.40
2022-12-31T08:36:25.706Z,5.95
2022-12-31T08:51:29.127Z,2.80
2022-12-31T09:07:03.740Z,2.50
2022-12-31T09:22:06.090Z,2.60
2022-12-31T09:37:19.280Z,2.50
2022-12-31T09:52:57.580Z,2.60
2022-12-31T10:08:18.547Z,2.60
2022-12-31T10:23:52.542Z,2.63
2022-12-31T10:39:24.462Z,2.60
2022-12-31T10:54:40.867Z,2.58
2022-12-31T11:10:10.047Z,2.50
2022-12-31T11:25:13.431Z,2.50
2022-12-31T11:40:18.313Z,2.60
2022-12-31T11:55:27.135Z,2.50
2022-12-31T12:10:36.143Z,2.65
2022-12-31T12:25:40.650Z,2.70
2022-12-31T12:40:49.168Z,2.50
2022-12-31T12:55:57.518Z,2.40
2022-12-31T13:11:46.720Z,2.78
2022-12-31T13:27:22.669Z,3.00
2022-12-31T13:42:49.065Z,2.90
2022-12-31T13:58:18.185Z,2.75
2022-12-31T14:13:54.674Z,3.50
2022-12-31T14:29:16.364Z,16.40
2022-12-31T14:44:44.027Z,20.27
2022-12-31T15:00:05.359Z,19.35
2022-12-31T15:15:28.280Z,17.83
2022-12-31T15:30:40.841Z,12.38
2022-12-31T15:45:43.021Z,11.77
2022-12-31T16:01:14.847Z,14.48
2022-12-31T16:16:22.372Z,10.35
2022-12-31T16:31:24.591Z,9.70
2022-12-31T16:46:31.145Z,9.88
2022-12-31T17:01:34.415Z,9.10
2022-12-31T17:16:38.148Z,8.38
2022-12-31T17:31:40.994Z,7.47
2022-12-31T17:46:43.200Z,8.40
2022-12-31T18:01:45.505Z,7.80
2022-12-31T18:16:48.435Z,7.55
2022-12-31T18:31:50.675Z,5.75
2022-12-31T18:46:52.847Z,9.10
2022-12-31T19:01:57.322Z,5.40
2022-12-31T19:32:02.488Z,5.13
2022-12-31T19:47:04.728Z,5.95
2022-12-31T20:02:07.693Z,5.95
2022-12-31T20:17:09.680Z,5.10
2022-12-31T20:32:12.724Z,5.03
2022-12-31T20:47:14.661Z,4.90
2022-12-31T21:02:21.217Z,4.90
2022-12-31T21:17:23.720Z,4.50
2022-12-31T21:32:25.735Z,4.40
2022-12-31T21:47:47.861Z,4.65
2022-12-31T22:03:08.596Z,4.72
2022-12-31T22:18:10.545Z,4.68
2022-12-31T22:33:12.426Z,4.35
2022-12-31T22:48:14.471Z,4.47
2022-12-31T23:03:16.419Z,4.03
2022-12-31T23:18:37.161Z,12.68
2022-12-31T23:33:39.044Z,9.90
2022-12-31T23:48:40.947Z,10.30
